Time;durP1;ratioP1;P1;durP2;ratioP2;P2;SDS_P1;SDS_P2;PMS_P1;PMS_P2;Temp;Humidity;BMP_temperature;BMP_pressure;BME280_temperature;BME280_humidity;BME280_pressure;Samples;Min_cycle;Max_cycle;Signal;HPM_P1;HPM_P2
2021/03/15 00:01:06;;;;;;;19.15;9.85;;;;;;;2.74;83.25;100340.06;1768083;81;20928;-42
2021/03/15 00:03:36;;;;;;;18.25;10.58;;;;;;;2.74;83.25;100326.00;1768138;81;20925;-42
2021/03/15 00:06:05;;;;;;;21.20;10.90;;;;;;;2.73;83.22;100325.56;1768071;81;21560;-42
2021/03/15 00:08:33;;;;;;;20.65;11.30;;;;;;;2.70;83.26;100320.42;1702025;84;21174;-42
2021/03/15 00:11:01;;;;;;;22.27;11.57;;;;;;;2.69;83.23;100321.26;1768113;80;21000;-43
2021/03/15 00:13:28;;;;;;;20.77;11.15;;;;;;;2.67;83.22;100322.94;1768066;81;21105;-43
2021/03/15 00:15:57;;;;;;;21.33;10.98;;;;;;;2.64;83.22;100319.05;1768107;81;20949;-42
2021/03/15 00:18:26;;;;;;;19.12;10.98;;;;;;;2.61;83.26;100319.01;1768053;81;21417;-42
2021/03/15 00:20:54;;;;;;;21.20;11.30;;;;;;;2.58;83.34;100318.14;1768072;81;21019;-40
2021/03/15 00:23:23;;;;;;;19.82;10.28;;;;;;;2.57;83.33;100315.58;1702121;84;21020;-40
2021/03/15 00:25:52;;;;;;;22.58;11.30;;;;;;;2.56;83.44;100313.86;1768092;80;20972;-42
2021/03/15 00:28:20;;;;;;;18.65;12.50;;;;;;;2.55;83.46;100310.44;1768190;81;21008;-42
2021/03/15 00:30:47;;;;;;;22.22;11.75;;;;;;;2.53;83.50;100310.00;1768257;81;21473;-42
2021/03/15 00:33:15;;;;;;;22.62;12.05;;;;;;;2.49;83.55;100304.38;1702085;84;21075;-43
2021/03/15 00:35:44;;;;;;;20.72;11.53;;;;;;;2.48;83.57;100297.16;1702055;84;21079;-42
2021/03/15 00:38:12;;;;;;;21.75;12.25;;;;;;;2.46;83.61;100291.58;1768044;81;20967;-42
2021/03/15 00:40:40;;;;;;;20.05;12.03;;;;;;;2.43;83.67;100288.14;1702126;84;21052;-42
2021/03/15 00:43:07;;;;;;;21.15;12.30;;;;;;;2.41;83.78;100286.42;1768095;80;21378;-42
2021/03/15 00:45:35;;;;;;;24.87;12.23;;;;;;;2.39;83.81;100289.35;1768040;81;20952;-42
2021/03/15 00:48:04;;;;;;;28.95;13.00;;;;;;;2.39;83.82;100285.52;1767988;81;20956;-42
2021/03/15 00:50:40;;;;;;;22.98;11.08;;;;;;;2.38;83.89;100278.30;1768077;81;21154;-41
2021/03/15 00:53:05;;;;;;;20.65;11.90;;;;;;;2.38;83.95;100276.14;1702022;84;21126;-42
2021/03/15 00:55:33;;;;;;;23.95;12.50;;;;;;;2.38;84.03;100277.42;1768104;81;21392;-43
2021/03/15 00:58:01;;;;;;;21.15;12.75;;;;;;;2.38;84.17;100276.14;1768011;81;21019;-42
2021/03/15 01:00:33;;;;;;;24.57;13.43;;;;;;;2.39;84.20;100276.58;1768111;81;20938;-42
2021/03/15 01:03:03;;;;;;;28.27;13.75;;;;;;;2.40;84.18;100275.73;1766877;81;20924;-42
2021/03/15 01:05:41;;;;;;;31.07;14.35;;;;;;;2.40;84.23;100270.22;1768101;81;21023;-42
2021/03/15 01:08:12;;;;;;;21.65;13.50;;;;;;;2.41;84.29;100265.55;1772432;80;21377;-42
2021/03/15 01:10:41;;;;;;;31.60;14.18;;;;;;;2.42;84.31;100258.76;1709878;83;21695;-42
2021/03/15 01:13:09;;;;;;;26.25;13.32;;;;;;;2.41;84.32;100257.05;1709992;83;21628;-43
2021/03/15 01:15:38;;;;;;;22.50;12.98;;;;;;;2.42;84.31;100259.59;1776219;80;21003;-43
2021/03/15 01:18:06;;;;;;;30.00;13.88;;;;;;;2.41;84.35;100260.87;1776301;80;20979;-41
2021/03/15 01:20:34;;;;;;;23.32;13.93;;;;;;;2.42;84.38;100256.20;1709963;84;21508;-42
2021/03/15 01:23:02;;;;;;;26.87;14.93;;;;;;;2.40;84.40;100254.02;1776159;80;21015;-42
2021/03/15 01:25:36;;;;;;;27.90;15.00;;;;;;;2.38;84.43;100256.98;1776188;80;21074;-42
2021/03/15 01:28:12;;;;;;;25.00;13.85;;;;;;;2.37;84.43;100253.98;1776154;80;21563;-42
2021/03/15 01:30:41;;;;;;;24.43;13.60;;;;;;;2.37;84.46;100255.27;1681793;84;21075;-40
2021/03/15 01:33:08;;;;;;;29.07;14.93;;;;;;;2.35;84.54;100255.67;1776376;80;22278;-41
2021/03/15 01:35:36;;;;;;;27.00;14.45;;;;;;;2.33;84.66;100257.34;1776182;80;20948;-41
2021/03/15 01:38:06;;;;;;;24.85;14.55;;;;;;;2.34;84.67;100264.17;1776260;80;21122;-43
2021/03/15 01:40:40;;;;;;;25.08;14.45;;;;;;;2.35;84.66;100268.03;1776220;80;21066;-42
2021/03/15 01:43:09;;;;;;;26.37;14.30;;;;;;;2.36;84.69;100262.49;1710259;83;21656;-42
2021/03/15 01:45:38;;;;;;;22.73;13.85;;;;;;;2.35;84.69;100264.61;1776257;80;21367;-42
2021/03/15 01:48:14;;;;;;;30.43;15.18;;;;;;;2.33;84.70;100263.73;1776152;80;21070;-41
2021/03/15 01:50:47;;;;;;;25.15;13.95;;;;;;;2.32;84.74;100259.06;1709951;83;21020;-43
2021/03/15 01:53:15;;;;;;;27.13;12.88;;;;;;;2.33;84.79;100265.02;1776300;80;21074;-43
2021/03/15 01:55:43;;;;;;;22.30;13.25;;;;;;;2.32;84.78;100273.11;1776517;80;21583;-43
2021/03/15 01:58:13;;;;;;;26.12;14.28;;;;;;;2.32;84.80;100269.69;1710016;84;23636;-42
2021/03/15 02:00:41;;;;;;;26.10;14.50;;;;;;;2.31;84.83;100268.84;1710036;84;21059;-41
2021/03/15 02:03:10;;;;;;;25.48;13.60;;;;;;;2.32;84.81;100267.13;1681838;84;20980;-42
2021/03/15 02:05:40;;;;;;;33.83;14.90;;;;;;;2.32;84.81;100270.97;1776382;80;21062;-42
2021/03/15 02:08:08;;;;;;;25.50;14.10;;;;;;;2.31;84.80;100275.23;1776290;80;21013;-43
2021/03/15 02:10:36;;;;;;;25.70;14.63;;;;;;;2.32;84.88;100276.07;1710033;84;21368;-42
2021/03/15 02:13:35;;;;;;;23.77;14.18;;;;;;;2.32;84.88;100270.97;1776445;80;21405;-42
2021/03/15 02:16:41;;;;;;;29.70;13.90;;;;;;;2.33;84.86;100278.66;1709933;83;20964;-42
2021/03/15 02:19:43;;;;;;;26.75;13.80;;;;;;;2.32;84.86;100285.89;1776408;80;21331;-42
2021/03/15 02:22:34;;;;;;;26.15;14.35;;;;;;;2.30;84.92;100287.56;1693906;84;21146;-43
2021/03/15 02:25:39;;;;;;;45.05;15.13;;;;;;;2.28;84.97;100287.53;1776337;80;21204;-41
2021/03/15 02:28:45;;;;;;;42.45;14.73;;;;;;;2.28;85.02;100286.69;1776319;80;21043;-41
2021/03/15 02:31:57;;;;;;;45.20;15.20;;;;;;;2.27;85.08;100292.20;1710044;83;21023;-41
2021/03/15 02:35:02;;;;;;;37.28;15.35;;;;;;;2.27;85.18;100285.81;1776353;80;20924;-41
2021/03/15 02:37:35;;;;;;;33.50;15.78;;;;;;;2.27;85.25;100281.98;1772062;80;21007;-42
2021/03/15 02:40:26;;;;;;;32.03;16.20;;;;;;;2.27;85.34;100278.16;1710113;84;22197;-42
2021/03/15 02:42:54;;;;;;;49.58;16.07;;;;;;;2.27;85.41;100278.16;1709901;84;21211;-41
2021/03/15 02:45:22;;;;;;;53.28;14.73;;;;;;;2.28;85.50;100278.59;1710057;84;20983;-41
2021/03/15 02:47:51;;;;;;;35.60;14.55;;;;;;;2.30;85.57;100281.18;1710047;83;21544;-42
2021/03/15 02:50:18;;;;;;;42.70;16.00;;;;;;;2.29;85.58;100282.86;1776368;80;20991;-41
2021/03/15 02:52:48;;;;;;;68.83;16.65;;;;;;;2.30;85.60;100285.02;1709970;83;22207;-41
2021/03/15 02:55:20;;;;;;;176.32;19.07;;;;;;;2.30;85.65;100283.73;1776307;80;21023;-41
2021/03/15 02:57:48;;;;;;;299.45;27.30;;;;;;;2.30;85.69;100283.30;1746695;80;20912;-41
2021/03/15 03:00:18;;;;;;;365.87;30.65;;;;;;;2.32;85.77;100285.02;1710056;83;21522;-41
2021/03/15 03:02:46;;;;;;;373.07;32.15;;;;;;;2.31;85.81;100280.34;1746552;80;21006;-42
2021/03/15 03:05:17;;;;;;;509.33;42.53;;;;;;;2.32;85.86;100288.84;1710084;84;21615;-42
2021/03/15 03:07:51;;;;;;;398.38;36.13;;;;;;;2.32;85.92;100279.91;1682852;83;21118;-40
2021/03/15 03:10:21;;;;;;;583.90;46.50;;;;;;;2.34;86.05;100282.93;1712087;83;20956;-41
2021/03/15 03:12:51;;;;;;;460.17;39.95;;;;;;;2.35;86.04;100287.60;1712003;83;21126;-42
2021/03/15 03:15:23;;;;;;;412.05;40.12;;;;;;;2.36;86.27;100288.05;1778477;80;21050;-42
2021/03/15 03:17:51;;;;;;;170.90;25.17;;;;;;;2.39;86.38;100289.35;1778545;80;21389;-42
2021/03/15 03:20:20;;;;;;;228.18;30.12;;;;;;;2.40;86.51;100291.07;1684270;83;21047;-42
2021/03/15 03:22:48;;;;;;;114.57;26.77;;;;;;;2.41;86.80;100288.98;1712062;83;21023;-42
2021/03/15 03:25:17;;;;;;;88.70;25.20;;;;;;;2.45;86.90;100285.62;1778521;80;20912;-42
2021/03/15 03:27:53;;;;;;;69.72;23.20;;;;;;;2.48;86.76;100288.61;1712090;83;21023;-42
2021/03/15 03:30:24;;;;;;;84.70;25.17;;;;;;;2.51;86.81;100285.69;1711964;83;22259;-43
2021/03/15 03:32:52;;;;;;;96.82;27.42;;;;;;;2.52;86.78;100292.52;1711980;83;20956;-41
2021/03/15 03:35:20;;;;;;;73.42;27.02;;;;;;;2.53;86.98;100296.78;1778525;80;20991;-42
2021/03/15 03:37:49;;;;;;;106.03;27.85;;;;;;;2.53;87.20;100292.11;1711913;83;21039;-40
2021/03/15 03:40:17;;;;;;;78.28;25.43;;;;;;;2.53;87.16;100299.77;1778551;80;21568;-40
2021/03/15 03:42:45;;;;;;;74.50;28.42;;;;;;;2.54;87.17;100297.22;1778496;80;21477;-41
2021/03/15 03:45:14;;;;;;;82.95;28.87;;;;;;;2.52;87.21;100300.58;1778491;80;21038;-42
2021/03/15 03:47:42;;;;;;;82.60;27.15;;;;;;;2.51;87.23;100290.80;1778489;80;21019;-42
2021/03/15 03:50:13;;;;;;;62.48;26.50;;;;;;;2.53;87.28;100291.67;1778553;80;21619;-42
2021/03/15 03:52:45;;;;;;;73.55;27.37;;;;;;;2.52;87.33;100287.40;1778488;80;20976;-42
2021/03/15 03:55:15;;;;;;;74.53;28.67;;;;;;;2.54;87.33;100289.55;1712057;83;21393;-41
2021/03/15 03:57:44;;;;;;;87.12;30.20;;;;;;;2.54;87.37;100292.55;1778468;80;20956;-41
2021/03/15 04:00:13;;;;;;;76.55;29.65;;;;;;;2.51;87.39;100288.24;1748594;80;20971;-41
2021/03/15 04:02:51;;;;;;;97.42;29.75;;;;;;;2.51;87.42;100292.08;1778553;80;21038;-42
2021/03/15 04:05:27;;;;;;;85.57;30.23;;;;;;;2.51;87.41;100289.52;1765020;80;21086;-42
2021/03/15 04:08:06;;;;;;;72.97;28.25;;;;;;;2.51;87.44;100291.20;1778191;80;21372;-41
2021/03/15 04:10:33;;;;;;;68.47;29.63;;;;;;;2.50;87.49;100286.53;1776251;80;21003;-41
2021/03/15 04:13:07;;;;;;;68.55;28.50;;;;;;;2.48;87.50;100280.55;1776287;80;20999;-42
2021/03/15 04:15:35;;;;;;;77.60;29.23;;;;;;;2.46;87.54;100280.08;1775812;80;21015;-42
2021/03/15 04:18:03;;;;;;;62.38;28.32;;;;;;;2.45;87.62;100280.52;1682045;84;21032;-41
2021/03/15 04:20:34;;;;;;;73.83;29.23;;;;;;;2.44;87.76;100272.41;1746226;80;21363;-42
2021/03/15 04:23:04;;;;;;;62.73;28.67;;;;;;;2.42;87.79;100270.25;1776300;80;21007;-41
2021/03/15 04:25:33;;;;;;;64.97;28.67;;;;;;;2.41;87.88;100264.27;1722199;80;21559;-42
2021/03/15 04:28:00;;;;;;;73.97;29.75;;;;;;;2.41;87.94;100267.27;1746464;80;20940;-42
2021/03/15 04:30:28;;;;;;;73.62;31.17;;;;;;;2.41;88.04;100262.16;1682088;84;21177;-42
2021/03/15 04:32:55;;;;;;;67.67;29.82;;;;;;;2.41;88.15;100263.44;1776308;80;21379;-41
2021/03/15 04:35:30;;;;;;;65.12;31.48;;;;;;;2.41;88.31;100259.16;1709931;83;20967;-42
2021/03/15 04:38:00;;;;;;;61.77;29.02;;;;;;;2.41;88.42;100259.59;1709939;84;20940;-42
2021/03/15 04:40:29;;;;;;;63.48;29.50;;;;;;;2.42;88.49;100255.77;1709846;84;21026;-42
2021/03/15 04:43:00;;;;;;;62.75;28.62;;;;;;;2.43;88.43;100260.03;1710037;84;21222;-42
2021/03/15 04:45:28;;;;;;;69.75;30.60;;;;;;;2.47;88.46;100259.66;1709955;84;21204;-42
2021/03/15 04:47:58;;;;;;;78.67;30.97;;;;;;;2.46;88.45;100261.78;1776282;80;21045;-42
2021/03/15 04:50:26;;;;;;;72.40;28.95;;;;;;;2.47;88.45;100266.05;1776283;80;20940;-41
2021/03/15 04:52:54;;;;;;;65.45;29.02;;;;;;;2.48;88.45;100260.09;1776229;80;21015;-42
2021/03/15 04:55:22;;;;;;;62.17;28.40;;;;;;;2.50;88.46;100263.94;1776332;80;20999;-41
2021/03/15 04:57:49;;;;;;;66.30;28.98;;;;;;;2.50;88.54;100266.08;1776250;80;21207;-41
2021/03/15 05:00:18;;;;;;;72.03;31.25;;;;;;;2.50;88.55;100276.30;1709869;84;20979;-43
2021/03/15 05:02:47;;;;;;;76.53;30.65;;;;;;;2.51;88.57;100265.24;1776367;80;21465;-42
2021/03/15 05:05:16;;;;;;;69.03;29.95;;;;;;;2.53;88.55;100264.00;1746884;80;21027;-43
2021/03/15 05:07:46;;;;;;;64.32;28.50;;;;;;;2.56;88.57;100264.03;1776317;80;21079;-43
2021/03/15 05:10:15;;;;;;;61.18;28.92;;;;;;;2.58;88.60;100263.19;1763701;81;22897;-42
2021/03/15 05:12:42;;;;;;;70.37;31.00;;;;;;;2.61;88.61;100266.61;1686030;85;21011;-43
2021/03/15 05:15:11;;;;;;;63.58;29.18;;;;;;;2.64;88.58;100264.09;1763724;81;21011;-42
2021/03/15 05:17:39;;;;;;;59.73;28.27;;;;;;;2.66;88.56;100259.44;1686152;85;21193;-42
2021/03/15 05:20:11;;;;;;;66.42;28.90;;;;;;;2.71;88.56;100264.61;1763796;81;20960;-42
2021/03/15 05:22:38;;;;;;;62.17;29.77;;;;;;;2.73;88.51;100265.48;1686092;83;21382;-42
2021/03/15 05:25:09;;;;;;;70.80;30.12;;;;;;;2.74;88.48;100264.64;1763268;81;20964;-42
2021/03/15 05:27:37;;;;;;;60.58;28.98;;;;;;;2.76;88.46;100271.03;1763715;81;21004;-42
2021/03/15 05:30:09;;;;;;;64.90;29.70;;;;;;;2.78;88.42;100271.91;1736102;81;20936;-43
2021/03/15 05:32:39;;;;;;;63.08;29.67;;;;;;;2.79;88.35;100268.10;1686278;85;21016;-42
2021/03/15 05:35:09;;;;;;;74.92;31.85;;;;;;;2.82;88.32;100271.97;1763853;81;21375;-41
2021/03/15 05:37:37;;;;;;;67.03;29.20;;;;;;;2.84;88.30;100272.84;1686136;85;21023;-41
2021/03/15 05:40:10;;;;;;;62.55;29.23;;;;;;;2.89;88.19;100274.17;1762664;81;20956;-40
2021/03/15 05:43:00;;;;;;;66.67;27.48;;;;;;;2.96;87.91;100282.33;1763789;81;21035;-41
2021/03/15 05:46:02;;;;;;;69.37;29.42;;;;;;;2.96;87.91;100282.33;1685996;84;21103;-42
2021/03/15 05:49:00;;;;;;;68.80;30.12;;;;;;;2.98;87.85;100284.92;1763839;81;21366;-41
2021/03/15 05:51:54;;;;;;;67.22;28.27;;;;;;;3.03;87.76;100292.21;1762334;80;21015;-41
2021/03/15 05:55:01;;;;;;;68.80;27.62;;;;;;;3.07;87.65;100291.39;1686245;84;20984;-43
2021/03/15 05:58:11;;;;;;;68.75;27.87;;;;;;;3.13;87.61;100289.33;1764009;81;21617;-43
2021/03/15 06:01:20;;;;;;;73.07;26.45;;;;;;;3.20;87.39;100287.25;1763949;81;21485;-40
2021/03/15 06:04:34;;;;;;;56.68;23.10;;;;;;;3.26;87.17;100290.30;1686218;85;21124;-41
2021/03/15 06:07:03;;;;;;;52.33;20.50;;;;;;;3.30;86.96;100300.58;1763822;81;21048;-41
2021/03/15 06:09:37;;;;;;;50.75;20.77;;;;;;;3.34;86.74;100298.89;1731444;82;20996;-41
2021/03/15 06:12:06;;;;;;;52.70;21.40;;;;;;;3.39;86.72;100302.78;1730160;82;21628;-42
2021/03/15 06:14:34;;;;;;;51.65;22.00;;;;;;;3.49;86.49;100304.55;1748349;82;20940;-41
2021/03/15 06:17:01;;;;;;;57.17;22.55;;;;;;;3.49;86.49;100304.55;1748264;82;21204;-41
2021/03/15 06:19:29;;;;;;;38.63;17.73;;;;;;;3.55;86.23;100306.31;1748168;82;21605;-42
2021/03/15 06:21:57;;;;;;;56.53;20.90;;;;;;;3.63;86.17;100314.06;1748260;81;20960;-42
2021/03/15 06:24:26;;;;;;;47.80;21.23;;;;;;;3.69;86.06;100312.41;1748302;82;20928;-41
2021/03/15 06:26:54;;;;;;;51.75;21.70;;;;;;;3.69;85.97;100312.41;1748335;82;20929;-41
2021/03/15 06:29:21;;;;;;;53.85;21.50;;;;;;;3.76;85.85;100311.17;1748258;81;21156;-41
2021/03/15 06:31:50;;;;;;;47.45;18.48;;;;;;;3.84;85.69;100310.80;1747765;81;20999;-41
2021/03/15 06:34:19;;;;;;;46.68;18.85;;;;;;;3.90;85.36;100321.07;1748159;81;21052;-40
2021/03/15 06:36:48;;;;;;;48.98;18.52;;;;;;;3.91;85.23;100317.66;1748299;82;20944;-41
2021/03/15 06:39:16;;;;;;;42.88;18.95;;;;;;;3.93;85.09;100316.00;1748243;81;21069;-41
2021/03/15 06:41:43;;;;;;;51.65;20.65;;;;;;;3.93;85.10;100318.97;1748262;82;21343;-42
2021/03/15 06:44:11;;;;;;;42.45;19.00;;;;;;;4.00;85.01;100317.75;1748155;80;21011;-41
2021/03/15 06:46:40;;;;;;;41.30;20.27;;;;;;;3.99;84.65;100319.88;1748295;82;20963;-42
2021/03/15 06:49:09;;;;;;;48.98;22.25;;;;;;;3.93;84.62;100314.72;1748226;82;21015;-42
2021/03/15 06:51:37;;;;;;;51.83;21.73;;;;;;;3.95;84.84;100318.14;1748313;82;21552;-41
2021/03/15 06:54:05;;;;;;;42.05;20.10;;;;;;;4.05;84.70;100317.78;1748268;82;21140;-41
2021/03/15 06:56:33;;;;;;;34.85;18.45;;;;;;;4.17;84.53;100314.00;1672499;82;21134;-42
2021/03/15 06:59:00;;;;;;;40.70;19.70;;;;;;;4.31;84.27;100307.66;1748239;81;20956;-42
2021/03/15 07:01:28;;;;;;;67.30;22.17;;;;;;;4.40;83.75;100317.11;1748231;81;21035;-41
2021/03/15 07:04:12;;;;;;;40.92;19.98;;;;;;;4.44;83.70;100298.77;1705627;82;21126;-42
2021/03/15 07:06:41;;;;;;;37.60;17.57;;;;;;;4.55;83.69;100300.94;1747715;81;21394;-41
2021/03/15 07:09:13;;;;;;;36.77;15.85;;;;;;;4.73;83.24;100303.14;1752601;81;21004;-41
2021/03/15 07:11:41;;;;;;;31.95;17.35;;;;;;;4.86;82.71;100298.46;1763932;81;21060;-41
2021/03/15 07:14:24;;;;;;;41.55;19.45;;;;;;;4.95;82.41;100305.33;1763754;81;21063;-43
2021/03/15 07:16:59;;;;;;;35.63;18.12;;;;;;;5.01;81.62;100298.92;1763895;81;21027;-41
2021/03/15 07:19:28;;;;;;;34.73;15.35;;;;;;;5.06;81.47;100298.94;1686314;85;21382;-45
2021/03/15 07:21:57;;;;;;;32.08;15.20;;;;;;;5.21;81.08;100295.98;1763705;81;21541;-40
2021/03/15 07:24:31;;;;;;;49.40;19.17;;;;;;;5.21;81.08;100295.98;1763855;81;21058;-42
2021/03/15 07:26:58;;;;;;;28.57;15.72;;;;;;;5.35;80.63;100301.13;1763765;81;20948;-41
2021/03/15 07:29:28;;;;;;;36.00;14.85;;;;;;;5.62;79.71;100297.69;1763822;81;20936;-42
2021/03/15 07:31:56;;;;;;;28.12;14.47;;;;;;;5.62;79.71;100297.69;1686275;85;22342;-42
2021/03/15 07:34:24;;;;;;;26.90;11.40;;;;;;;5.74;79.23;100301.55;1763718;81;20999;-42
2021/03/15 07:36:59;;;;;;;31.30;13.20;;;;;;;5.83;78.58;100295.96;1686168;85;21647;-41
2021/03/15 07:39:31;;;;;;;29.95;14.30;;;;;;;5.90;78.35;100300.22;1763966;81;21130;-42
2021/03/15 07:42:01;;;;;;;25.80;13.50;;;;;;;5.95;77.67;100296.38;1686145;85;21020;-42
2021/03/15 07:44:34;;;;;;;34.40;13.70;;;;;;;5.92;76.92;100292.08;1763857;81;22273;-42
2021/03/15 07:47:06;;;;;;;24.43;11.90;;;;;;;5.94;76.99;100294.66;1763727;81;21060;-42
2021/03/15 07:49:38;;;;;;;28.50;11.97;;;;;;;6.02;76.56;100291.25;1763832;81;21561;-42
2021/03/15 07:52:12;;;;;;;27.00;11.83;;;;;;;6.11;76.51;100286.94;1763751;81;21015;-43
2021/03/15 07:54:42;;;;;;;30.95;12.53;;;;;;;6.24;75.90;100281.33;1763833;81;20968;-42
2021/03/15 07:57:22;;;;;;;27.52;12.07;;;;;;;6.27;75.87;100279.62;1763776;81;21189;-42
2021/03/15 07:59:58;;;;;;;24.80;11.55;;;;;;;6.41;75.30;100272.27;1686089;85;21672;-43
2021/03/15 08:02:30;;;;;;;21.52;11.20;;;;;;;6.46;74.26;100272.68;1763809;81;21222;-43
2021/03/15 08:04:59;;;;;;;23.30;11.48;;;;;;;6.54;74.37;100275.23;1763839;81;21003;-43
2021/03/15 08:07:28;;;;;;;27.77;11.38;;;;;;;6.66;73.77;100272.16;1763589;81;21043;-43
2021/03/15 08:09:59;;;;;;;25.77;11.50;;;;;;;6.76;73.62;100267.40;1763681;81;21251;-43
2021/03/15 08:12:36;;;;;;;27.50;11.45;;;;;;;6.99;73.22;100268.53;1763657;81;21067;-41
2021/03/15 08:15:07;;;;;;;28.40;10.67;;;;;;;7.10;72.21;100271.48;1764077;81;21572;-42
2021/03/15 08:17:37;;;;;;;20.48;9.88;;;;;;;7.22;72.21;100262.37;1686063;85;21043;-42
2021/03/15 08:20:06;;;;;;;21.73;10.53;;;;;;;7.31;71.45;100256.30;1763710;81;20996;-42
2021/03/15 08:22:43;;;;;;;25.57;11.48;;;;;;;7.36;70.44;100259.69;1686169;85;22287;-42
2021/03/15 08:25:12;;;;;;;26.65;11.57;;;;;;;7.41;70.46;100257.08;1763791;81;21161;-41
2021/03/15 08:27:41;;;;;;;24.95;11.25;;;;;;;7.50;70.31;100256.16;1735984;81;21118;-42
2021/03/15 08:30:26;;;;;;;22.45;10.58;;;;;;;7.53;68.76;100254.83;1763693;81;21679;-42
2021/03/15 08:32:54;;;;;;;20.97;10.45;;;;;;;7.42;69.20;100253.19;1763720;81;21573;-42
2021/03/15 08:35:22;;;;;;;22.20;11.75;;;;;;;7.36;69.32;100253.70;1763726;81;21378;-42
2021/03/15 08:38:06;;;;;;;25.48;11.78;;;;;;;7.39;69.58;100254.50;1686036;84;21055;-42
2021/03/15 08:40:48;;;;;;;27.82;11.18;;;;;;;7.52;69.55;100251.39;1763746;81;20960;-42
2021/03/15 08:43:25;;;;;;;25.08;11.20;;;;;;;7.70;69.12;100258.08;1763576;81;20936;-42
2021/03/15 08:45:57;;;;;;;19.30;9.45;;;;;;;7.90;68.46;100245.44;1763716;81;21047;-42
2021/03/15 08:48:42;;;;;;;21.70;10.30;;;;;;;8.07;68.12;100241.83;1763780;81;22322;-42
2021/03/15 08:51:15;;;;;;;21.05;9.88;;;;;;;8.22;67.72;100242.95;1686111;85;21094;-42
2021/03/15 08:53:51;;;;;;;17.20;10.38;;;;;;;8.45;67.35;100234.91;1763755;81;20999;-43
2021/03/15 08:56:22;;;;;;;;;;;;;;;8.68;67.09;100227.75;1766289;81;21051;-42
2021/03/15 08:58:52;;;;;;;20.97;10.30;;;;;;;8.94;66.58;100227.80;1763747;81;20191;-42
2021/03/15 09:01:22;;;;;;;17.92;9.85;;;;;;;9.19;65.95;100227.00;1763273;81;21403;-43
2021/03/15 09:03:59;;;;;;;20.52;10.45;;;;;;;9.40;65.24;100230.11;1686121;85;21564;-42
2021/03/15 09:06:44;;;;;;;23.42;9.95;;;;;;;9.49;63.79;100220.47;1763727;81;20897;-41
2021/03/15 09:09:30;;;;;;;32.00;10.38;;;;;;;9.62;63.43;100217.64;1686873;84;21157;-42
2021/03/15 09:38:12;;;;;;;23.67;9.23;;;;;;;11.20;58.39;100213.00;1891633;74;22721;-43
2021/03/15 09:40:46;;;;;;;20.60;8.60;;;;;;;11.45;57.33;100214.97;1858407;77;21486;-42
2021/03/15 09:43:20;;;;;;;21.73;7.53;;;;;;;11.74;56.82;100218.53;1820395;77;21185;-43
2021/03/15 09:46:00;;;;;;;22.45;8.70;;;;;;;12.12;54.75;100213.66;1777160;79;21669;-44
2021/03/15 09:48:31;;;;;;;34.95;8.60;;;;;;;12.43;54.19;100207.56;1826038;77;21522;-44
2021/03/15 09:51:03;;;;;;;23.20;9.08;;;;;;;12.77;52.52;100202.65;1773848;80;21079;-44
2021/03/15 09:53:47;;;;;;;26.95;8.65;;;;;;;13.02;51.17;100194.91;1847294;76;23273;-43
2021/03/15 09:56:19;;;;;;;17.92;10.18;;;;;;;13.15;51.55;100199.24;1817498;77;21014;-44
2021/03/15 09:58:50;;;;;;;18.98;9.55;;;;;;;13.36;51.13;100203.33;1817090;79;21478;-44
2021/03/15 10:01:21;;;;;;;22.40;10.68;;;;;;;13.42;51.10;100202.28;1817658;79;20978;-44
2021/03/15 10:03:54;;;;;;;26.90;9.78;;;;;;;13.50;50.32;100207.62;1816032;79;21033;-45
2021/03/15 10:06:29;;;;;;;29.52;8.85;;;;;;;13.46;50.08;100203.43;1817650;77;20955;-44
2021/03/15 10:09:17;;;;;;;18.87;7.40;;;;;;;13.43;51.14;100211.34;1817930;79;21014;-44
2021/03/15 10:11:54;;;;;;;28.32;7.17;;;;;;;13.49;50.33;100207.22;1813141;77;21203;-43
2021/03/15 10:14:41;;;;;;;19.42;6.33;;;;;;;13.50;50.71;100198.52;1817733;77;20982;-44
2021/03/15 10:17:20;;;;;;;36.13;6.45;;;;;;;13.57;50.89;100204.83;1789262;79;21021;-44
2021/03/15 10:20:08;;;;;;;19.60;6.35;;;;;;;13.63;50.17;100208.04;1815342;79;20986;-43
2021/03/15 10:22:37;;;;;;;14.80;5.87;;;;;;;13.66;50.34;100208.39;1817654;79;20926;-44
2021/03/15 10:25:07;;;;;;;24.30;7.08;;;;;;;13.66;49.82;100209.69;1817888;79;22251;-45
2021/03/15 10:27:38;;;;;;;28.32;6.08;;;;;;;13.64;50.78;100199.80;1817733;79;20927;-44
2021/03/15 10:30:11;;;;;;;17.37;6.10;;;;;;;13.61;49.79;100199.45;1817757;79;20923;-44
2021/03/15 10:32:42;;;;;;;19.92;6.08;;;;;;;13.43;49.12;100198.34;1817910;79;21137;-45
2021/03/15 10:35:13;;;;;;;9.65;5.42;;;;;;;13.32;49.99;100199.14;1817734;79;20939;-44
2021/03/15 10:37:43;;;;;;;10.32;5.80;;;;;;;13.33;50.39;100192.57;1784226;80;21370;-44
2021/03/15 10:40:18;;;;;;;13.72;5.62;;;;;;;13.30;50.30;100185.34;1783276;80;21057;-44
2021/03/15 10:42:47;;;;;;;24.27;5.53;;;;;;;13.32;51.11;100190.05;1785614;80;21463;-44
2021/03/15 10:45:17;;;;;;;16.10;5.15;;;;;;;13.44;49.29;100182.30;1785499;80;20935;-44
2021/03/15 10:47:46;;;;;;;13.30;5.50;;;;;;;13.44;49.69;100183.14;1784532;79;20919;-44
2021/03/15 10:50:28;;;;;;;6.35;5.35;;;;;;;13.53;49.61;100182.44;1785545;80;22287;-45
2021/03/15 10:53:23;;;;;;;17.25;5.60;;;;;;;13.65;49.25;100180.25;1791591;79;21013;-44
2021/03/15 10:55:53;;;;;;;27.17;6.75;;;;;;;13.85;48.93;100178.66;1799941;79;21498;-44
2021/03/15 10:58:24;;;;;;;13.83;5.70;;;;;;;13.96;48.96;100169.63;1771664;79;20986;-43
2021/03/15 11:01:01;;;;;;;10.70;5.22;;;;;;;13.92;48.47;100174.09;1749349;79;21045;-44
2021/03/15 11:03:31;;;;;;;22.07;5.40;;;;;;;13.98;48.70;100175.16;1799879;79;21540;-45
2021/03/15 11:06:21;;;;;;;19.37;6.17;;;;;;;14.16;47.62;100174.95;1798756;79;21034;-43
2021/03/15 11:08:56;;;;;;;12.47;5.47;;;;;;;14.16;47.15;100169.73;1796857;79;21033;-45
2021/03/15 11:11:29;;;;;;;11.33;5.47;;;;;;;14.08;47.82;100166.12;1799437;79;20930;-44
2021/03/15 11:14:02;;;;;;;15.23;5.40;;;;;;;14.10;47.34;100165.21;1798983;79;21084;-44
2021/03/15 11:16:32;;;;;;;8.20;4.85;;;;;;;14.07;47.74;100159.22;1799391;79;21368;-44
2021/03/15 11:19:08;;;;;;;14.83;5.53;;;;;;;14.10;47.65;100160.00;1799559;79;21176;-45
2021/03/15 11:21:45;;;;;;;26.57;5.67;;;;;;;14.19;47.45;100163.55;1799084;79;20930;-45
2021/03/15 11:24:28;;;;;;;20.50;5.37;;;;;;;14.33;46.98;100156.07;1798219;79;21005;-43
2021/03/15 11:27:33;;;;;;;8.15;4.83;;;;;;;14.46;47.58;100152.53;1798382;79;21053;-45
2021/03/15 11:30:01;;;;;;;18.82;4.90;;;;;;;14.64;46.78;100152.24;1777193;79;21373;-44
2021/03/15 11:32:43;;;;;;;24.05;5.70;;;;;;;14.75;46.69;100137.95;1797515;79;20953;-45
2021/03/15 11:35:20;;;;;;;23.57;5.35;;;;;;;14.77;46.14;100150.46;1797422;78;20950;-43
2021/03/15 11:38:00;;;;;;;9.60;4.97;;;;;;;14.66;46.43;100132.19;1797647;79;21624;-46
2021/03/15 11:40:33;;;;;;;10.15;4.92;;;;;;;14.70;46.89;100134.66;1779678;80;21069;-43
2021/03/15 11:43:01;;;;;;;9.70;5.00;;;;;;;14.84;45.40;100127.61;1780133;79;21541;-44
2021/03/15 11:45:29;;;;;;;12.03;5.20;;;;;;;14.64;45.75;100128.80;1780535;80;21638;-44
2021/03/15 11:47:56;;;;;;;13.72;4.67;;;;;;;14.25;46.55;100133.38;1780612;80;20955;-44
2021/03/15 11:50:28;;;;;;;10.95;4.85;;;;;;;13.90;47.92;100123.87;1779609;80;21348;-44
2021/03/15 11:52:57;;;;;;;7.05;5.28;;;;;;;13.72;48.43;100123.63;1781823;78;20926;-44
2021/03/15 11:55:27;;;;;;;16.85;5.15;;;;;;;13.62;48.55;100125.72;1784938;79;21347;-45
2021/03/15 11:57:55;;;;;;;11.08;5.78;;;;;;;13.46;48.89;100116.80;1784822;80;21884;-43
2021/03/15 12:00:24;;;;;;;16.77;5.72;;;;;;;13.27;49.32;100120.48;1784936;80;21279;-44
2021/03/15 12:02:54;;;;;;;10.82;5.53;;;;;;;13.08;49.85;100104.22;1783131;80;21605;-44
2021/03/15 12:05:40;;;;;;;7.10;4.78;;;;;;;13.03;49.96;100105.66;1784938;80;20994;-44
2021/03/15 12:08:11;;;;;;;5.42;4.58;;;;;;;12.96;50.23;100108.08;1784045;80;21539;-44
2021/03/15 12:10:43;;;;;;;6.72;4.53;;;;;;;12.92;50.42;100110.39;1784840;80;20930;-43